createdAt,value
2022-07-25T00:03:53.620Z,99120.25
2022-07-25T00:08:59.558Z,99115.22
2022-07-25T00:14:02.692Z,99107.50
2022-07-25T00:19:07.216Z,99102.78
2022-07-25T00:24:10.753Z,99102.78
2022-07-25T00:29:13.858Z,99095.88
2022-07-25T00:34:18.112Z,99099.88
2022-07-25T00:39:21.010Z,99090.03
2022-07-25T00:44:25.747Z,99101.50
2022-07-25T00:49:30.077Z,99093.25
2022-07-25T00:54:33.740Z,99093.78
2022-07-25T00:59:36.693Z,99079.97
2022-07-25T01:04:41.679Z,99080.53
2022-07-25T01:09:44.667Z,99075.22
2022-07-25T01:14:47.584Z,99072.00
2022-07-25T01:19:53.314Z,99064.84
2022-07-25T01:24:57.597Z,99064.84
2022-07-25T01:30:00.509Z,99053.69
2022-07-25T01:35:03.951Z,99047.56
2022-07-25T01:40:09.901Z,99046.53
2022-07-25T01:45:13.941Z,99041.44
2022-07-25T01:50:16.880Z,99046.22
2022-07-25T01:55:21.171Z,99038.25
2022-07-25T02:00:24.119Z,99046.22
2022-07-25T02:05:27.090Z,99035.31
2022-07-25T02:10:31.379Z,99027.91
2022-07-25T02:15:34.367Z,99029.22
2022-07-25T02:20:37.360Z,99029.47
2022-07-25T02:25:41.674Z,99029.97
2022-07-25T02:30:44.956Z,99025.97
2022-07-25T02:35:47.888Z,99024.34
2022-07-25T02:40:53.852Z,99012.91
2022-07-25T02:45:56.845Z,99020.06
2022-07-25T02:50:59.791Z,99001.75
2022-07-25T02:56:04.140Z,99004.63
2022-07-25T03:01:09.194Z,98995.38
2022-07-25T03:06:12.169Z,99004.91
2022-07-25T03:11:16.780Z,99000.69
2022-07-25T03:16:19.903Z,99001.97
2022-07-25T03:21:22.882Z,98996.66
2022-07-25T03:26:27.152Z,99000.13
2022-07-25T03:31:30.195Z,98986.31
2022-07-25T03:36:33.202Z,98987.44
2022-07-25T03:41:37.527Z,98988.16
2022-07-25T03:46:40.763Z,98977.34
2022-07-25T03:51:44.233Z,98985.81
2022-07-25T03:56:50.791Z,98980.59
2022-07-25T04:01:53.805Z,98980.31
2022-07-25T04:06:56.809Z,98966.28
2022-07-25T04:12:01.152Z,98959.41
2022-07-25T04:17:04.580Z,98953.00
2022-07-25T04:22:07.616Z,98950.44
2022-07-25T04:27:11.984Z,98942.22
2022-07-25T04:32:21.396Z,98935.06
2022-07-25T04:37:26.166Z,98917.59
2022-07-25T04:42:30.531Z,98919.38
2022-07-25T04:47:33.692Z,98911.94
2022-07-25T04:52:37.453Z,98900.66
2022-07-25T04:57:42.169Z,98894.72
2022-07-25T05:02:45.113Z,98902.84
2022-07-25T05:07:48.294Z,98897.22
2022-07-25T05:12:52.682Z,98892.72
2022-07-25T05:17:55.658Z,98883.16
2022-07-25T05:22:58.673Z,98870.59
2022-07-25T05:28:03.069Z,98877.00
2022-07-25T05:33:06.111Z,98869.19
2022-07-25T05:38:09.082Z,98865.38
2022-07-25T05:43:13.386Z,98867.16
2022-07-25T05:48:16.961Z,98861.63
2022-07-25T05:53:19.957Z,98852.22
2022-07-25T05:58:29.473Z,98850.69
2022-07-25T06:03:34.269Z,98839.38
2022-07-25T06:08:37.823Z,98844.34
2022-07-25T06:13:42.333Z,98838.56
2022-07-25T06:18:45.334Z,98834.81
2022-07-25T06:23:48.318Z,98833.84
2022-07-25T06:28:53.039Z,98837.53
2022-07-25T06:33:56.057Z,98827.41
2022-07-25T06:38:59.045Z,98819.94
2022-07-25T06:44:03.610Z,98816.97
2022-07-25T06:49:07.145Z,98808.97
2022-07-25T06:54:10.910Z,98802.19
2022-07-25T06:59:15.489Z,98793.28
2022-07-25T07:04:19.416Z,98781.59
2022-07-25T07:09:26.954Z,98776.03
2022-07-25T07:14:31.421Z,98782.56
2022-07-25T07:19:34.395Z,98780.50
2022-07-25T07:24:42.714Z,98780.88
2022-07-25T07:29:48.675Z,98773.09
2022-07-25T07:34:52.046Z,98772.47
2022-07-25T07:39:55.038Z,98761.97
2022-07-25T07:44:59.477Z,98767.28
2022-07-25T07:50:02.472Z,98757.53
2022-07-25T07:55:23.656Z,98762.28
2022-07-25T08:00:31.057Z,98753.09
2022-07-25T08:05:36.889Z,98758.25
2022-07-25T08:10:43.321Z,98751.91
2022-07-25T08:15:49.901Z,98745.63
2022-07-25T08:20:53.191Z,98752.63
2022-07-25T08:25:56.314Z,98746.09
2022-07-25T08:31:00.888Z,98735.84
2022-07-25T08:36:04.098Z,98741.69
2022-07-25T08:41:07.489Z,98746.19
2022-07-25T08:46:12.400Z,98738.44
2022-07-25T08:51:16.152Z,98739.03
2022-07-25T08:56:21.343Z,98729.09
2022-07-25T09:01:25.972Z,98737.50
2022-07-25T09:06:30.028Z,98726.50
2022-07-25T09:11:34.933Z,98730.59
2022-07-25T09:16:41.335Z,98712.81
2022-07-25T09:21:46.887Z,98713.81
2022-07-25T09:26:55.756Z,98713.13
2022-07-25T09:32:01.329Z,98713.06
2022-07-25T09:37:06.551Z,98708.97
2022-07-25T09:42:19.647Z,98718.88
2022-07-25T09:47:24.093Z,98711.41
2022-07-25T09:52:27.257Z,98703.44
2022-07-25T09:57:30.310Z,98699.19
2022-07-25T10:02:43.189Z,98691.31
2022-07-25T10:07:49.389Z,98682.84
2022-07-25T10:13:08.057Z,98672.72
2022-07-25T10:18:15.290Z,98670.38
2022-07-25T10:23:24.125Z,98661.03
2022-07-25T10:28:38.536Z,98651.25
2022-07-25T10:33:43.875Z,98642.38
2022-07-25T10:38:48.057Z,98647.44
2022-07-25T10:43:52.082Z,98639.63
2022-07-25T10:49:01.928Z,98636.16
2022-07-25T10:54:14.783Z,98628.47
2022-07-25T10:59:27.317Z,98612.00
2022-07-25T11:04:32.142Z,98606.94
2022-07-25T11:09:35.220Z,98593.66
2022-07-25T11:14:41.463Z,98600.00
2022-07-25T11:19:54.691Z,98588.06
2022-07-25T11:24:58.566Z,98594.75
2022-07-25T11:30:09.399Z,98604.97
2022-07-25T11:35:16.456Z,98577.28
2022-07-25T11:40:20.611Z,98567.41
2022-07-25T11:45:25.960Z,98560.63
2022-07-25T11:50:32.488Z,98576.94
2022-07-25T11:55:40.199Z,98550.84
2022-07-25T12:00:45.430Z,98543.50
2022-07-25T12:05:50.373Z,98552.03
2022-07-25T12:10:55.234Z,98532.34
2022-07-25T12:15:59.244Z,98532.97
2022-07-25T12:21:03.677Z,98526.97
2022-07-25T12:26:07.008Z,98516.94
2022-07-25T12:31:10.508Z,98516.25
2022-07-25T12:36:15.388Z,98499.53
2022-07-25T12:41:22.688Z,98494.41
2022-07-25T12:46:25.891Z,98493.84
2022-07-25T12:51:30.318Z,98489.53
2022-07-25T12:56:38.264Z,98476.41
2022-07-25T13:01:44.238Z,98471.84
2022-07-25T13:06:48.744Z,98467.19
2022-07-25T13:11:52.827Z,98459.00
2022-07-25T13:16:56.010Z,98449.34
2022-07-25T13:22:00.497Z,98437.53
2022-07-25T13:39:55.199Z,98403.91
2022-07-25T13:44:58.224Z,98403.25
2022-07-25T13:50:01.253Z,98399.47
2022-07-25T13:55:06.487Z,98399.34
2022-07-25T14:00:10.952Z,98391.50
2022-07-25T14:05:14.036Z,98372.69
2022-07-25T14:10:18.435Z,98378.00
2022-07-25T14:15:21.486Z,98369.47
2022-07-25T14:20:24.596Z,98362.63
2022-07-25T14:25:28.987Z,98362.31
2022-07-25T14:30:32.016Z,98351.06
2022-07-25T14:35:35.684Z,98339.53
2022-07-25T14:40:40.128Z,98335.56
2022-07-25T14:45:43.140Z,98336.25
2022-07-25T14:50:46.443Z,98331.91
2022-07-25T14:55:50.804Z,98314.13
2022-07-25T15:00:53.875Z,98322.00
2022-07-25T15:05:57.021Z,98307.00
2022-07-25T15:11:01.467Z,98275.97
2022-07-25T15:16:05.110Z,98281.53
2022-07-25T15:21:08.629Z,98280.97
2022-07-25T15:26:13.134Z,98267.63
2022-07-25T15:31:16.385Z,98273.47
2022-07-25T15:36:20.105Z,98263.66
2022-07-25T15:41:24.468Z,98257.88
2022-07-25T15:46:29.011Z,98250.09
2022-07-25T15:51:32.074Z,98244.19
2022-07-25T15:56:37.357Z,98236.19
2022-07-25T16:01:40.439Z,98227.81
2022-07-25T16:06:43.561Z,98223.59
2022-07-25T16:11:47.900Z,98216.13
2022-07-25T16:16:50.913Z,98202.53
2022-07-25T16:21:53.927Z,98204.81
2022-07-25T16:26:58.303Z,98200.22
2022-07-25T16:32:01.332Z,98185.19
2022-07-25T16:37:04.984Z,98180.88
2022-07-25T16:42:09.986Z,98169.00
2022-07-25T16:47:13.013Z,98173.03
2022-07-25T16:52:16.272Z,98168.91
2022-07-25T16:57:23.826Z,98149.97
2022-07-25T17:02:29.904Z,98145.75
2022-07-25T17:07:33.565Z,98139.06
2022-07-25T17:12:37.970Z,98136.38
2022-07-25T17:17:41.050Z,98134.56
2022-07-25T17:22:44.057Z,98130.97
2022-07-25T17:27:48.448Z,98138.06
2022-07-25T17:32:53.282Z,98138.44
2022-07-25T17:37:56.338Z,98148.53
2022-07-25T17:43:00.874Z,98140.03
2022-07-25T17:48:04.614Z,98142.75
2022-07-25T17:53:07.739Z,98145.50
2022-07-25T17:58:13.089Z,98141.59
2022-07-25T18:03:16.257Z,98143.91
2022-07-25T18:08:19.534Z,98161.00
2022-07-25T18:13:23.909Z,98268.03
2022-07-25T18:18:27.977Z,98278.94
2022-07-25T18:23:30.999Z,98299.72
2022-07-25T18:28:35.533Z,98307.38
2022-07-25T18:33:38.856Z,98287.00
2022-07-25T18:38:41.893Z,98282.97
2022-07-25T18:43:47.321Z,98308.53
2022-07-25T18:48:51.471Z,98323.13
2022-07-25T18:53:54.602Z,98325.19
2022-07-25T18:58:59.045Z,98316.91
2022-07-25T19:04:03.574Z,98313.34
2022-07-25T19:09:06.787Z,98322.72
2022-07-25T19:14:11.307Z,98327.50
2022-07-25T19:19:14.529Z,98316.44
2022-07-25T19:24:17.993Z,98312.03
2022-07-25T19:29:22.429Z,98308.63
2022-07-25T19:34:25.573Z,98305.97
2022-07-25T19:39:28.611Z,98308.78
2022-07-25T19:44:32.952Z,98310.13
2022-07-25T19:49:35.975Z,98341.78
2022-07-25T19:54:40.020Z,98357.41
2022-07-25T19:59:44.511Z,98341.88
2022-07-25T20:04:47.623Z,98348.06
2022-07-25T20:09:50.636Z,98375.28
2022-07-25T20:14:56.377Z,98347.34
2022-07-25T20:20:00.135Z,98318.66
2022-07-25T20:25:03.151Z,98307.28
2022-07-25T20:30:10.301Z,98310.72
2022-07-25T20:35:13.395Z,98313.28
2022-07-25T20:40:17.009Z,98325.41
2022-07-25T20:45:21.503Z,98320.03
2022-07-25T20:50:24.525Z,98318.03
2022-07-25T20:55:28.513Z,98315.25
2022-07-25T21:00:33.109Z,98318.19
2022-07-25T21:05:37.737Z,98317.78
2022-07-25T21:10:40.868Z,98311.03
2022-07-25T21:15:45.281Z,98307.66
2022-07-25T21:20:48.847Z,98331.72
2022-07-25T21:25:52.046Z,98336.88
2022-07-25T21:30:57.026Z,98348.72
2022-07-25T21:35:59.989Z,98329.19
2022-07-25T21:41:03.653Z,98343.66
2022-07-25T21:46:08.148Z,98322.28
2022-07-25T21:51:19.337Z,98321.66
2022-07-25T21:56:26.523Z,98324.94
2022-07-25T22:01:30.983Z,98351.69
2022-07-25T22:06:34.121Z,98349.38
2022-07-25T22:11:42.391Z,98358.72
2022-07-25T22:16:51.122Z,98353.38
2022-07-25T22:21:55.495Z,98346.69
2022-07-25T22:26:58.545Z,98371.56
2022-07-25T22:32:03.078Z,98380.09
2022-07-25T22:37:06.301Z,98395.56
2022-07-25T22:42:09.335Z,98409.97
2022-07-25T22:47:13.814Z,98416.88
2022-07-25T22:52:16.897Z,98426.09
2022-07-25T22:57:19.882Z,98428.72
2022-07-25T23:02:24.297Z,98426.47
2022-07-25T23:07:27.289Z,98442.25
2022-07-25T23:12:30.332Z,98465.75
2022-07-25T23:17:34.731Z,98474.13
2022-07-25T23:22:37.849Z,98500.56
2022-07-25T23:27:40.914Z,98534.44
2022-07-25T23:32:45.534Z,98551.91
2022-07-25T23:37:48.532Z,98559.13
2022-07-25T23:42:51.549Z,98579.88
2022-07-25T23:47:56.821Z,98578.03
2022-07-25T23:52:59.823Z,98584.28
2022-07-25T23:58:02.797Z,98589.16
